createdAt,value
2023-01-21T00:00:35.180Z,94.484
2023-01-21T00:01:34.939Z,94.404
2023-01-21T00:02:34.731Z,94.408
2023-01-21T00:03:34.600Z,94.418
2023-01-21T00:05:35.329Z,94.393
2023-01-21T00:06:34.653Z,94.372
2023-01-21T00:07:35.357Z,94.345
2023-01-21T00:08:35.041Z,94.307
2023-01-21T00:10:35.034Z,94.278
2023-01-21T00:11:34.804Z,94.212
2023-01-21T00:12:34.603Z,94.204
2023-01-21T00:13:35.353Z,94.202
2023-01-21T00:15:34.928Z,94.317
2023-01-21T00:16:34.839Z,94.269
2023-01-21T00:17:34.590Z,94.252
2023-01-21T00:18:35.381Z,94.292
2023-01-21T00:20:35.248Z,94.187
2023-01-21T00:21:35.009Z,94.185
2023-01-21T00:22:34.685Z,94.126
2023-01-21T00:23:34.457Z,94.168
2023-01-21T00:25:34.971Z,94.193
2023-01-21T00:27:35.325Z,94.319
2023-01-21T00:28:35.044Z,94.298
2023-01-21T00:29:35.011Z,94.296
2023-01-21T00:30:35.444Z,94.246
2023-01-21T00:32:34.798Z,94.290
2023-01-21T00:33:34.549Z,94.319
2023-01-21T00:34:35.235Z,94.166
2023-01-21T00:35:35.092Z,94.124
2023-01-21T00:36:34.780Z,94.071
2023-01-21T00:37:34.760Z,94.111
2023-01-21T00:38:34.513Z,94.093
2023-01-21T00:40:35.523Z,94.191
2023-01-21T00:41:35.218Z,94.130
2023-01-21T00:42:34.933Z,94.137
2023-01-21T00:43:34.599Z,94.185
2023-01-21T00:45:34.981Z,94.162
2023-01-21T00:46:34.919Z,94.172
2023-01-21T00:47:34.691Z,94.065
2023-01-21T00:48:34.404Z,94.040
2023-01-21T00:50:35.127Z,93.935
2023-01-21T00:51:34.994Z,93.964
2023-01-21T00:52:34.838Z,93.958
2023-01-21T00:53:34.491Z,93.941
2023-01-21T00:55:35.205Z,93.939
2023-01-21T00:56:35.806Z,93.756
2023-01-21T00:57:35.236Z,93.743
2023-01-21T00:58:35.425Z,93.788
2023-01-21T00:59:34.876Z,93.748
2023-01-21T01:00:35.313Z,93.655
2023-01-21T01:01:35.285Z,93.611
2023-01-21T01:02:35.268Z,93.577
2023-01-21T01:03:35.036Z,93.550
2023-01-21T01:04:34.760Z,93.611
2023-01-21T01:05:34.524Z,93.542
2023-01-21T01:06:35.276Z,93.662
2023-01-21T01:08:34.799Z,93.630
2023-01-21T01:09:34.646Z,93.598
2023-01-21T01:10:34.766Z,93.640
2023-01-21T01:11:34.612Z,93.641
2023-01-21T01:13:35.116Z,93.552
2023-01-21T01:14:35.027Z,93.607
2023-01-21T01:15:34.752Z,93.493
2023-01-21T01:16:34.573Z,93.445
2023-01-21T01:17:35.326Z,93.487
2023-01-21T01:19:34.975Z,93.384
2023-01-21T01:20:35.192Z,93.266
2023-01-21T01:21:34.939Z,93.336
2023-01-21T01:22:34.616Z,93.414
2023-01-21T01:23:34.399Z,93.411
2023-01-21T01:24:35.097Z,93.336
2023-01-21T01:25:34.772Z,93.212
2023-01-21T01:26:34.485Z,93.176
2023-01-21T01:27:35.195Z,93.136
2023-01-21T01:28:34.967Z,93.025
2023-01-21T01:29:35.031Z,93.023
2023-01-21T01:30:35.178Z,93.063
2023-01-21T01:31:35.276Z,93.100
2023-01-21T01:32:35.151Z,93.157
2023-01-21T01:33:35.067Z,93.140
2023-01-21T01:34:34.799Z,93.018
2023-01-21T01:35:34.533Z,93.079
2023-01-21T01:36:35.270Z,93.016
2023-01-21T01:37:34.925Z,92.983
2023-01-21T01:39:34.506Z,92.852
2023-01-21T01:40:35.568Z,92.892
2023-01-21T01:41:35.437Z,92.819
2023-01-21T01:42:35.154Z,92.825
2023-01-21T01:43:34.811Z,92.720
2023-01-21T01:44:34.535Z,92.768
2023-01-21T01:46:35.136Z,92.825
2023-01-21T01:47:34.867Z,92.896
2023-01-21T01:48:34.660Z,92.840
2023-01-21T01:49:34.442Z,92.709
2023-01-21T01:50:35.468Z,92.762
2023-01-21T01:51:35.268Z,92.798
2023-01-21T01:52:35.051Z,92.894
2023-01-21T01:53:34.859Z,92.869
2023-01-21T01:54:34.552Z,92.917
2023-01-21T01:55:35.324Z,92.892
2023-01-21T01:56:35.006Z,92.980
2023-01-21T01:57:34.776Z,92.798
2023-01-21T01:58:34.417Z,92.800
2023-01-21T01:59:35.099Z,92.926
2023-01-21T02:00:35.178Z,93.027
2023-01-21T02:01:34.897Z,93.012
2023-01-21T02:02:34.837Z,93.233
2023-01-21T02:04:35.408Z,93.231
2023-01-21T02:06:35.148Z,93.351
2023-01-21T02:07:34.955Z,93.145
2023-01-21T02:09:35.299Z,93.145
2023-01-21T02:11:34.941Z,93.094
2023-01-21T02:12:34.582Z,93.235
2023-01-21T02:13:35.339Z,93.153
2023-01-21T02:14:35.056Z,93.235
2023-01-21T02:16:34.646Z,93.311
2023-01-21T02:17:34.553Z,93.126
2023-01-21T02:18:35.360Z,93.113
2023-01-21T02:19:35.068Z,92.964
2023-01-21T02:20:35.169Z,92.999
2023-01-21T02:21:34.924Z,92.920
2023-01-21T02:22:34.607Z,92.856
2023-01-21T02:23:34.475Z,92.894
2023-01-21T02:24:35.179Z,92.943
2023-01-21T02:26:34.687Z,93.088
2023-01-21T02:27:34.564Z,93.071
2023-01-21T02:28:35.480Z,93.022
2023-01-21T02:29:35.208Z,92.943
2023-01-21T02:30:35.366Z,92.894
2023-01-21T02:31:35.223Z,93.004
2023-01-21T02:32:35.140Z,92.936
2023-01-21T02:33:34.744Z,92.739
2023-01-21T02:34:34.541Z,92.878
2023-01-21T02:35:35.200Z,92.701
2023-01-21T02:36:34.882Z,92.716
2023-01-21T02:37:34.598Z,92.890
2023-01-21T02:38:35.194Z,92.934
2023-01-21T02:39:35.034Z,92.915
2023-01-21T02:41:35.333Z,92.919
2023-01-21T02:42:35.047Z,92.837
2023-01-21T02:43:34.734Z,92.896
2023-01-21T02:44:34.394Z,92.844
2023-01-21T02:45:35.087Z,92.980
2023-01-21T02:46:34.922Z,92.932
2023-01-21T02:47:34.859Z,93.096
2023-01-21T02:48:34.543Z,93.001
2023-01-21T02:49:35.259Z,92.924
2023-01-21T02:50:35.276Z,92.924
2023-01-21T02:51:35.077Z,93.142
2023-01-21T02:52:34.772Z,93.378
2023-01-21T02:53:34.541Z,93.199
2023-01-21T02:54:35.224Z,93.260
2023-01-21T02:55:34.880Z,93.369
2023-01-21T02:56:34.692Z,93.277
2023-01-21T02:58:35.492Z,93.340
2023-01-21T02:59:35.156Z,93.443
2023-01-21T03:00:35.251Z,93.346
2023-01-21T03:01:35.240Z,93.392
2023-01-21T03:02:35.143Z,93.500
2023-01-21T03:03:34.761Z,93.489
2023-01-21T03:04:34.497Z,93.544
2023-01-21T03:05:35.233Z,93.546
2023-01-21T03:06:35.022Z,93.756
2023-01-21T03:07:34.794Z,93.748
2023-01-21T03:08:34.515Z,93.828
2023-01-21T03:09:35.203Z,93.788
2023-01-21T03:10:35.307Z,93.746
2023-01-21T03:11:35.135Z,93.905
2023-01-21T03:13:34.671Z,93.844
2023-01-21T03:14:34.512Z,93.865
2023-01-21T03:15:35.176Z,93.908
2023-01-21T03:16:34.981Z,93.926
2023-01-21T03:17:34.784Z,94.034
2023-01-21T03:18:34.427Z,93.891
2023-01-21T03:19:35.255Z,94.000
2023-01-21T03:20:35.285Z,93.950
2023-01-21T03:21:35.064Z,93.895
2023-01-21T03:22:34.744Z,93.994
2023-01-21T03:23:34.375Z,93.678
2023-01-21T03:24:35.018Z,93.460
2023-01-21T03:25:34.721Z,93.521
2023-01-21T03:26:34.525Z,93.573
2023-01-21T03:27:34.391Z,93.559
2023-01-21T03:28:35.140Z,93.537
2023-01-21T03:30:34.887Z,93.426
2023-01-21T03:31:35.015Z,93.371
2023-01-21T03:32:34.706Z,93.371
2023-01-21T03:33:34.575Z,93.552
2023-01-21T03:35:35.049Z,93.378
2023-01-21T03:36:34.780Z,93.468
2023-01-21T03:37:34.470Z,93.327
2023-01-21T03:38:34.534Z,93.388
2023-01-21T03:39:35.836Z,93.426
2023-01-21T03:40:35.186Z,93.302
2023-01-21T03:41:34.897Z,93.418
2023-01-21T03:42:34.812Z,93.331
2023-01-21T03:43:35.093Z,93.269
2023-01-21T03:45:34.678Z,93.090
2023-01-21T03:46:34.504Z,93.182
2023-01-21T03:47:35.233Z,93.243
2023-01-21T03:48:34.896Z,93.044
2023-01-21T03:50:35.759Z,93.128
2023-01-21T03:51:34.759Z,93.056
2023-01-21T03:53:35.244Z,93.304
2023-01-21T03:55:34.737Z,93.369
2023-01-21T03:56:34.407Z,93.453
2023-01-21T03:57:35.084Z,93.493
2023-01-21T03:58:34.863Z,93.445
2023-01-21T04:00:36.023Z,93.609
2023-01-21T04:01:35.495Z,93.537
2023-01-21T04:02:34.783Z,93.472
2023-01-21T04:03:34.621Z,93.434
2023-01-21T04:04:35.329Z,93.361
2023-01-21T04:05:35.016Z,93.208
2023-01-21T04:06:34.920Z,93.264
2023-01-21T04:07:34.558Z,93.176
2023-01-21T04:08:35.303Z,93.145
2023-01-21T04:09:35.050Z,93.044
2023-01-21T04:10:35.062Z,93.062
2023-01-21T04:12:34.945Z,93.121
2023-01-21T04:16:09.624Z,92.856
2023-01-21T04:17:10.399Z,92.844
2023-01-21T04:19:05.717Z,92.827
2023-01-21T04:20:05.596Z,92.833
2023-01-21T04:21:06.271Z,92.850
2023-01-21T04:22:06.220Z,92.890
2023-01-21T04:23:06.065Z,92.911
2023-01-21T04:24:05.780Z,92.919
2023-01-21T04:25:05.690Z,92.993
2023-01-21T04:26:06.330Z,92.871
2023-01-21T04:27:05.979Z,92.928
2023-01-21T04:28:05.637Z,92.817
2023-01-21T04:29:06.236Z,92.922
2023-01-21T04:30:05.915Z,92.894
2023-01-21T04:31:05.864Z,92.857
2023-01-21T04:32:05.875Z,92.987
2023-01-21T04:33:05.488Z,92.957
2023-01-21T04:34:06.212Z,92.936
2023-01-21T04:35:06.254Z,92.939
2023-01-21T04:36:06.002Z,92.960
2023-01-21T04:37:05.630Z,93.046
2023-01-21T04:38:06.248Z,92.880
2023-01-21T04:39:05.935Z,92.802
2023-01-21T04:40:05.625Z,92.781
2023-01-21T04:41:06.231Z,92.777
2023-01-21T04:43:05.440Z,93.012
2023-01-21T04:44:06.147Z,92.789
2023-01-21T04:45:05.803Z,92.693
2023-01-21T04:46:05.541Z,92.865
2023-01-21T04:47:06.207Z,92.989
2023-01-21T04:48:05.881Z,92.884
2023-01-21T04:49:05.626Z,92.920
2023-01-21T04:50:05.370Z,93.014
2023-01-21T04:51:06.540Z,92.842
2023-01-21T04:52:05.466Z,92.890
2023-01-21T04:53:06.265Z,93.144
2023-01-21T04:54:06.152Z,92.949
2023-01-21T04:55:05.803Z,92.970
2023-01-21T04:56:06.159Z,93.086
2023-01-21T04:57:05.870Z,92.903
2023-01-21T04:58:06.239Z,92.737
2023-01-21T04:59:06.179Z,92.796
2023-01-21T05:00:05.840Z,92.745
2023-01-21T05:01:05.662Z,92.848
2023-01-21T05:02:05.625Z,92.854
2023-01-21T05:03:06.527Z,92.894
2023-01-21T05:04:06.234Z,92.987
2023-01-21T05:05:05.890Z,92.913
2023-01-21T05:06:05.574Z,92.939
2023-01-21T05:07:06.263Z,92.924
2023-01-21T05:08:06.130Z,92.980
2023-01-21T05:10:05.560Z,92.892
2023-01-21T05:11:06.274Z,92.857
2023-01-21T05:12:06.012Z,92.882
2023-01-21T05:13:05.683Z,92.930
2023-01-21T05:15:05.985Z,92.865
2023-01-21T05:16:05.745Z,93.001
2023-01-21T05:17:05.784Z,93.018
2023-01-21T05:18:05.489Z,92.701
2023-01-21T05:20:05.925Z,92.564
2023-01-21T05:21:05.588Z,92.642
2023-01-21T05:22:06.283Z,92.514
2023-01-21T05:23:05.940Z,92.671
2023-01-21T05:24:05.693Z,92.503
2023-01-21T05:25:06.335Z,92.524
2023-01-21T05:26:06.136Z,92.528
2023-01-21T05:27:05.802Z,92.659
2023-01-21T05:28:05.583Z,92.598
2023-01-21T05:29:06.335Z,92.514
2023-01-21T05:30:05.997Z,92.554
2023-01-21T05:31:05.925Z,92.596
2023-01-21T05:32:05.814Z,92.594
2023-01-21T05:33:05.780Z,92.415
2023-01-21T05:34:05.489Z,92.589
2023-01-21T05:35:06.207Z,92.438
2023-01-21T05:37:05.397Z,92.535
2023-01-21T05:38:06.043Z,92.516
2023-01-21T05:39:05.784Z,92.173
2023-01-21T05:40:05.435Z,92.344
2023-01-21T05:41:05.356Z,92.199
2023-01-21T05:42:06.063Z,92.331
2023-01-21T05:43:05.820Z,92.245
2023-01-21T05:44:05.547Z,92.138
2023-01-21T05:45:06.282Z,92.241
2023-01-21T05:47:05.796Z,92.184
2023-01-21T05:48:05.508Z,92.209
2023-01-21T05:49:06.239Z,92.133
2023-01-21T05:50:05.910Z,92.199
2023-01-21T05:51:05.683Z,92.131
2023-01-21T05:52:05.491Z,91.988
2023-01-21T05:53:06.196Z,91.961
2023-01-21T05:54:05.935Z,92.045
2023-01-21T05:55:10.542Z,92.033
2023-01-21T05:56:05.447Z,92.095
2023-01-21T05:57:06.091Z,92.083
2023-01-21T05:58:05.821Z,92.129
2023-01-21T05:59:05.463Z,92.014
2023-01-21T06:00:06.183Z,92.045
2023-01-21T06:01:06.065Z,91.986
2023-01-21T06:02:06.138Z,91.971
2023-01-21T06:03:06.067Z,91.951
2023-01-21T06:04:06.034Z,91.932
2023-01-21T06:05:05.971Z,91.919
2023-01-21T06:06:05.576Z,91.963
2023-01-21T06:07:06.318Z,92.035
2023-01-21T06:08:06.026Z,92.178
2023-01-21T06:09:05.675Z,92.127
2023-01-21T06:10:06.349Z,92.096
2023-01-21T06:12:05.696Z,92.186
2023-01-21T06:13:06.243Z,92.157
2023-01-21T06:14:05.919Z,92.283
2023-01-21T06:15:05.673Z,92.144
2023-01-21T06:16:06.446Z,92.064
2023-01-21T06:17:06.152Z,92.053
2023-01-21T06:18:07.011Z,91.946
2023-01-21T06:19:05.656Z,92.020
2023-01-21T06:20:06.343Z,92.022
2023-01-21T06:21:06.031Z,91.963
2023-01-21T06:22:05.676Z,91.856
2023-01-21T06:23:06.399Z,91.959
2023-01-21T06:24:06.050Z,91.910
2023-01-21T06:25:05.699Z,91.940
2023-01-21T06:26:05.526Z,91.951
2023-01-21T06:27:06.140Z,92.119
2023-01-21T06:28:05.830Z,92.096
2023-01-21T06:29:05.503Z,91.883
2023-01-21T06:30:06.287Z,92.011
2023-01-21T06:31:06.355Z,92.026
2023-01-21T06:32:06.724Z,92.138
2023-01-21T06:33:05.500Z,91.736
2023-01-21T06:34:06.242Z,91.921
2023-01-21T06:35:06.279Z,91.925
2023-01-21T06:36:05.934Z,91.871
2023-01-21T06:37:05.700Z,91.768
2023-01-21T06:38:06.396Z,91.684
2023-01-21T06:39:06.092Z,91.757
2023-01-21T06:40:05.772Z,91.791
2023-01-21T06:41:05.556Z,91.835
2023-01-21T06:42:06.287Z,91.864
2023-01-21T06:44:05.754Z,91.799
2023-01-21T06:45:05.491Z,91.890
2023-01-21T06:46:06.202Z,91.990
2023-01-21T06:47:11.139Z,91.900
2023-01-21T06:49:05.528Z,91.965
2023-01-21T06:50:06.238Z,91.934
2023-01-21T06:51:05.991Z,91.963
2023-01-21T06:52:05.815Z,91.902
2023-01-21T06:53:05.450Z,91.747
2023-01-21T06:54:06.102Z,91.875
2023-01-21T06:55:05.835Z,91.869
2023-01-21T06:56:05.478Z,91.944
2023-01-21T06:57:06.262Z,91.885
2023-01-21T06:58:06.023Z,91.866
2023-01-21T06:59:05.991Z,91.896
2023-01-21T07:00:05.632Z,91.932
2023-01-21T07:01:05.529Z,91.990
2023-01-21T07:02:06.430Z,92.007
2023-01-21T07:03:06.380Z,91.992
2023-01-21T07:04:06.285Z,92.077
2023-01-21T07:05:06.005Z,91.963
2023-01-21T07:06:05.629Z,92.053
2023-01-21T07:07:06.340Z,91.971
2023-01-21T07:08:06.026Z,91.848
2023-01-21T07:09:05.840Z,91.707
2023-01-21T07:10:05.532Z,91.744
2023-01-21T07:11:07.236Z,91.675
2023-01-21T07:12:05.988Z,91.585
2023-01-21T07:13:05.700Z,91.652
2023-01-21T07:14:06.435Z,91.663
2023-01-21T07:16:08.618Z,91.498
2023-01-21T07:17:05.569Z,91.475
2023-01-21T07:18:06.219Z,91.488
2023-01-21T07:19:05.880Z,91.255
2023-01-21T07:20:05.535Z,91.246
2023-01-21T07:21:06.138Z,91.335
2023-01-21T07:22:05.867Z,91.271
2023-01-21T07:23:05.770Z,91.349
2023-01-21T07:24:05.539Z,91.301
2023-01-21T07:25:06.272Z,91.236
2023-01-21T07:26:06.006Z,91.347
2023-01-21T07:27:05.912Z,91.234
2023-01-21T07:28:05.659Z,91.353
2023-01-21T07:29:05.616Z,91.292
2023-01-21T07:30:06.368Z,91.126
2023-01-21T07:31:06.545Z,91.112
2023-01-21T07:32:06.114Z,91.208
2023-01-21T07:33:05.991Z,91.089
2023-01-21T07:34:05.779Z,90.914
2023-01-21T07:35:05.463Z,90.874
2023-01-21T07:36:05.592Z,90.948
2023-01-21T07:37:06.292Z,90.927
2023-01-21T07:38:06.011Z,91.152
2023-01-21T07:39:05.863Z,90.901
2023-01-21T07:40:05.631Z,90.962
2023-01-21T07:41:06.323Z,90.975
2023-01-21T07:42:06.068Z,90.916
2023-01-21T07:43:05.745Z,90.887
2023-01-21T07:44:05.645Z,91.061
2023-01-21T07:45:06.418Z,90.956
2023-01-21T07:46:06.207Z,90.912
2023-01-21T07:47:06.202Z,90.752
2023-01-21T07:48:05.896Z,90.738
2023-01-21T07:49:05.712Z,90.691
2023-01-21T07:50:05.470Z,90.761
2023-01-21T07:51:06.490Z,90.784
2023-01-21T07:52:05.722Z,90.649
2023-01-21T07:53:05.535Z,90.580
2023-01-21T07:54:06.231Z,90.731
2023-01-21T07:55:06.052Z,90.601
2023-01-21T07:56:05.794Z,90.532
2023-01-21T07:57:05.546Z,90.429
2023-01-21T07:58:06.320Z,90.540
2023-01-21T07:59:06.156Z,90.582
2023-01-21T08:00:05.969Z,90.576
2023-01-21T08:01:05.966Z,90.557
2023-01-21T08:02:06.049Z,90.624
2023-01-21T08:03:05.992Z,90.576
2023-01-21T08:04:05.752Z,90.355
2023-01-21T08:05:05.464Z,90.403
2023-01-21T08:06:06.217Z,90.706
2023-01-21T08:07:06.003Z,90.527
2023-01-21T08:08:05.688Z,90.628
2023-01-21T08:09:05.471Z,90.532
2023-01-21T08:10:06.274Z,90.614
2023-01-21T08:11:06.050Z,90.565
2023-01-21T08:12:05.735Z,90.416
2023-01-21T08:13:05.504Z,90.494
2023-01-21T08:14:06.253Z,90.456
2023-01-21T08:15:05.975Z,90.544
2023-01-21T08:16:05.760Z,90.389
2023-01-21T08:17:05.638Z,90.479
2023-01-21T08:18:06.335Z,90.447
2023-01-21T08:19:06.154Z,90.313
2023-01-21T08:20:05.878Z,90.265
2023-01-21T08:21:05.579Z,90.262
2023-01-21T08:22:06.291Z,90.328
2023-01-21T08:23:06.068Z,90.334
2023-01-21T08:24:05.829Z,90.071
2023-01-21T08:25:05.562Z,90.004
2023-01-21T08:26:06.323Z,89.949
2023-01-21T08:27:05.821Z,89.966
2023-01-21T08:28:05.474Z,89.405
2023-01-21T08:29:06.212Z,89.502
2023-01-21T08:30:05.965Z,89.535
2023-01-21T08:31:05.975Z,89.476
2023-01-21T08:32:06.220Z,89.109
2023-01-21T08:33:08.163Z,89.325
2023-01-21T08:34:05.897Z,89.090
2023-01-21T08:35:05.662Z,89.148
2023-01-21T08:36:06.335Z,89.232
2023-01-21T08:37:06.103Z,89.357
2023-01-21T08:38:05.860Z,89.020
2023-01-21T08:39:08.050Z,89.077
2023-01-21T08:40:05.771Z,89.020
2023-01-21T08:41:05.435Z,89.075
2023-01-21T08:42:06.228Z,88.987
2023-01-21T08:43:05.987Z,89.268
2023-01-21T08:44:05.712Z,88.936
2023-01-21T08:45:06.424Z,88.743
2023-01-21T08:46:06.387Z,88.820
2023-01-21T08:47:06.202Z,88.697
2023-01-21T08:48:05.973Z,88.762
2023-01-21T08:49:05.722Z,88.579
2023-01-21T08:50:06.404Z,88.217
2023-01-21T08:51:06.279Z,88.358
2023-01-21T08:52:06.191Z,88.661
2023-01-21T08:53:05.902Z,88.432
2023-01-21T08:54:05.567Z,88.610
2023-01-21T08:55:07.542Z,88.438
2023-01-21T08:56:06.286Z,88.266
2023-01-21T08:57:06.036Z,88.089
2023-01-21T08:58:05.711Z,87.956
2023-01-21T08:59:05.596Z,88.104
2023-01-21T09:00:06.528Z,87.946
2023-01-21T09:01:06.298Z,88.091
2023-01-21T09:02:06.411Z,87.996
2023-01-21T09:03:06.289Z,87.734
2023-01-21T09:04:06.020Z,87.801
2023-01-21T09:05:05.910Z,87.793
2023-01-21T09:06:05.652Z,87.929
2023-01-21T09:07:06.374Z,88.011
2023-01-21T09:08:06.148Z,87.790
2023-01-21T09:09:05.841Z,88.018
2023-01-21T09:10:05.591Z,87.544
2023-01-21T09:11:06.364Z,87.750
2023-01-21T09:12:06.147Z,87.790
2023-01-21T09:13:05.892Z,87.090
2023-01-21T09:14:05.551Z,86.916
2023-01-21T09:15:06.306Z,86.844
2023-01-21T09:16:06.080Z,86.508
2023-01-21T09:17:06.019Z,86.405
2023-01-21T09:18:05.699Z,86.517
2023-01-21T09:19:05.533Z,86.487
2023-01-21T09:20:06.113Z,86.134
2023-01-21T09:21:05.955Z,86.370
2023-01-21T09:22:05.688Z,86.346
2023-01-21T09:23:05.463Z,85.852
2023-01-21T09:24:06.187Z,86.142
2023-01-21T09:25:05.923Z,86.153
2023-01-21T09:27:06.139Z,86.065
2023-01-21T09:28:05.940Z,85.064
2023-01-21T09:29:05.643Z,86.050
2023-01-21T09:30:05.424Z,84.681
2023-01-21T09:31:06.259Z,85.165
2023-01-21T09:32:06.112Z,85.484
2023-01-21T09:33:05.856Z,85.096
2023-01-21T09:34:05.596Z,84.528
2023-01-21T09:35:05.420Z,84.396
2023-01-21T09:36:06.182Z,84.036
2023-01-21T09:37:05.989Z,84.343
2023-01-21T09:38:05.700Z,84.370
2023-01-21T09:39:05.429Z,84.646
2023-01-21T09:40:08.648Z,84.532
2023-01-21T09:41:05.494Z,84.507
2023-01-21T09:42:06.202Z,84.957
2023-01-21T09:43:05.967Z,84.629
2023-01-21T09:44:05.771Z,83.223
2023-01-21T09:45:05.608Z,82.897
2023-01-21T09:46:06.043Z,82.733
2023-01-21T09:47:05.919Z,82.483
2023-01-21T09:48:05.675Z,82.060
2023-01-21T09:49:05.448Z,82.081
2023-01-21T09:50:06.238Z,81.943
2023-01-21T09:51:06.182Z,81.793
2023-01-21T09:52:05.915Z,82.293
2023-01-21T09:53:05.762Z,81.890
2023-01-21T09:54:05.495Z,81.415
2023-01-21T09:55:06.290Z,81.329
2023-01-21T09:56:06.079Z,81.539
2023-01-21T09:57:05.770Z,82.222
2023-01-21T09:58:05.511Z,81.705
2023-01-21T09:59:06.167Z,81.173
2023-01-21T10:00:05.468Z,81.360
2023-01-21T10:01:06.239Z,81.127
2023-01-21T10:02:06.175Z,81.533
2023-01-21T10:04:05.627Z,81.392
2023-01-21T10:05:05.608Z,81.200
2023-01-21T10:06:06.287Z,81.655
2023-01-21T10:07:05.956Z,81.463
2023-01-21T10:08:05.656Z,81.547
2023-01-21T10:09:06.404Z,81.339
2023-01-21T10:10:06.171Z,81.219
2023-01-21T10:11:05.905Z,81.102
2023-01-21T10:12:05.874Z,81.734
2023-01-21T10:13:05.675Z,80.725
2023-01-21T10:14:06.391Z,81.081
2023-01-21T10:15:06.322Z,81.524
2023-01-21T10:16:06.060Z,81.016
2023-01-21T10:17:06.199Z,81.047
2023-01-21T10:18:05.977Z,81.535
2023-01-21T10:19:05.666Z,81.360
2023-01-21T10:20:05.499Z,81.449
2023-01-21T10:21:06.190Z,81.739
2023-01-21T10:22:05.999Z,81.238
2023-01-21T10:23:05.783Z,80.727
2023-01-21T10:24:05.559Z,80.875
2023-01-21T10:25:06.493Z,81.234
2023-01-21T10:26:06.212Z,81.636
2023-01-21T10:27:05.992Z,81.474
2023-01-21T10:28:05.727Z,81.186
2023-01-21T10:29:05.528Z,80.984
2023-01-21T10:30:09.172Z,81.934
2023-01-21T10:31:06.222Z,81.036
2023-01-21T10:32:06.455Z,81.026
2023-01-21T10:33:06.213Z,81.404
2023-01-21T10:34:05.931Z,81.104
2023-01-21T10:35:05.741Z,80.969
2023-01-21T10:36:05.435Z,80.896
2023-01-21T10:37:06.340Z,80.856
2023-01-21T10:38:06.079Z,80.259
2023-01-21T10:39:05.847Z,80.545
2023-01-21T10:40:05.580Z,80.437
2023-01-21T10:41:06.299Z,80.376
2023-01-21T10:42:06.099Z,80.635
2023-01-21T10:43:05.883Z,80.650
2023-01-21T10:44:05.672Z,80.395
2023-01-21T10:45:05.488Z,80.278
2023-01-21T10:46:06.361Z,80.481
2023-01-21T10:47:06.259Z,80.505
2023-01-21T10:48:06.077Z,80.398
2023-01-21T10:49:05.762Z,80.067
2023-01-21T10:50:05.575Z,80.086
2023-01-21T10:51:06.552Z,79.782
2023-01-21T10:52:05.506Z,79.527
2023-01-21T10:53:06.272Z,80.320
2023-01-21T10:54:06.094Z,79.716
2023-01-21T10:55:05.992Z,79.460
2023-01-21T10:56:05.654Z,79.578
2023-01-21T10:57:06.424Z,79.510
2023-01-21T10:58:06.156Z,79.275
2023-01-21T10:59:05.945Z,79.185
2023-01-21T11:00:05.807Z,79.754
2023-01-21T11:01:05.658Z,79.088
2023-01-21T11:02:05.709Z,79.389
2023-01-21T11:03:05.509Z,79.380
2023-01-21T11:04:06.284Z,79.498
2023-01-21T11:06:07.429Z,79.502
2023-01-21T11:07:06.521Z,79.809
2023-01-21T11:08:06.367Z,79.063
2023-01-21T11:09:06.266Z,79.018
2023-01-21T11:10:06.127Z,79.521
2023-01-21T11:11:06.175Z,78.676
2023-01-21T11:12:05.959Z,79.010
2023-01-21T11:13:05.657Z,79.323
2023-01-21T11:14:06.535Z,78.340
2023-01-21T11:15:06.752Z,78.319
2023-01-21T11:16:05.587Z,78.545
2023-01-21T11:17:06.309Z,79.168
2023-01-21T11:18:06.088Z,78.386
2023-01-21T11:19:05.879Z,78.424
2023-01-21T11:20:05.596Z,78.190
2023-01-21T11:21:06.093Z,78.409
2023-01-21T11:22:06.514Z,79.197
2023-01-21T11:23:06.358Z,78.545
2023-01-21T11:24:06.162Z,78.337
2023-01-21T11:25:05.952Z,78.920
2023-01-21T11:26:05.741Z,78.705
2023-01-21T11:27:05.550Z,78.661
2023-01-21T11:28:06.278Z,78.922
2023-01-21T11:29:08.578Z,78.323
2023-01-21T11:30:31.617Z,78.813
2023-01-21T11:32:20.946Z,78.771
2023-01-21T11:33:20.754Z,78.579
2023-01-21T11:34:20.671Z,78.655
2023-01-21T11:35:20.559Z,79.138
2023-01-21T11:36:21.327Z,78.520
2023-01-21T11:38:20.656Z,79.008
2023-01-21T11:39:20.404Z,78.377
2023-01-21T11:40:23.042Z,78.377
2023-01-21T11:41:21.137Z,78.228
2023-01-21T11:43:20.595Z,78.569
2023-01-21T11:44:21.396Z,77.841
2023-01-21T11:46:21.065Z,78.585
2023-01-21T11:47:20.863Z,78.844
2023-01-21T11:48:20.723Z,78.628
2023-01-21T11:49:20.451Z,78.728
2023-01-21T11:50:22.002Z,78.749
2023-01-21T11:51:20.935Z,78.554
2023-01-21T11:52:20.711Z,78.474
2023-01-21T11:53:21.404Z,78.318
2023-01-21T11:54:21.160Z,78.022
2023-01-21T11:55:21.116Z,78.306
2023-01-21T11:56:20.839Z,78.230
2023-01-21T11:57:20.543Z,78.041
2023-01-21T11:58:21.322Z,78.211
2023-01-21T11:59:21.183Z,77.968
2023-01-21T12:00:21.299Z,77.749
2023-01-21T12:01:21.086Z,78.115
2023-01-21T12:02:20.920Z,77.663
2023-01-21T12:03:21.068Z,77.721
2023-01-21T12:04:20.927Z,77.120
2023-01-21T12:05:20.671Z,77.478
2023-01-21T12:06:20.505Z,77.448
2023-01-21T12:07:21.216Z,77.478
2023-01-21T12:08:20.884Z,76.919
2023-01-21T12:09:20.612Z,77.110
2023-01-21T12:10:21.348Z,77.013
2023-01-21T12:12:20.982Z,76.765
2023-01-21T12:13:20.906Z,77.034
2023-01-21T12:15:21.336Z,77.297
2023-01-21T12:16:21.309Z,76.742
2023-01-21T12:17:20.991Z,77.030
2023-01-21T12:18:20.561Z,77.381
2023-01-21T12:19:21.435Z,77.747
2023-01-21T12:20:21.555Z,77.253
2023-01-21T12:21:21.331Z,77.560
2023-01-21T12:23:20.939Z,77.217
2023-01-21T12:24:20.593Z,77.034
2023-01-21T12:25:21.379Z,76.864
2023-01-21T12:26:21.151Z,77.062
2023-01-21T12:27:20.923Z,76.931
2023-01-21T12:28:20.622Z,76.403
2023-01-21T12:29:22.559Z,76.876
2023-01-21T12:30:21.635Z,76.828
2023-01-21T12:31:20.979Z,77.135
2023-01-21T12:32:23.656Z,77.543
2023-01-21T12:33:20.651Z,77.602
2023-01-21T12:34:21.347Z,77.440
2023-01-21T12:35:21.604Z,77.919
2023-01-21T12:36:21.396Z,77.846
2023-01-21T12:37:21.105Z,77.736
2023-01-21T12:38:20.818Z,77.740
2023-01-21T12:39:20.484Z,78.396
2023-01-21T12:40:21.479Z,78.226
2023-01-21T12:41:21.231Z,78.594
2023-01-21T12:42:21.087Z,78.501
2023-01-21T12:43:20.822Z,78.325
2023-01-21T12:44:20.619Z,78.411
2023-01-21T12:45:21.645Z,78.836
2023-01-21T12:46:20.553Z,78.892
2023-01-21T12:47:20.544Z,78.726
2023-01-21T12:48:21.283Z,79.092
2023-01-21T12:49:21.704Z,79.159
2023-01-21T12:50:20.506Z,79.681
2023-01-21T12:51:21.480Z,79.412
2023-01-21T12:52:21.347Z,79.378
2023-01-21T12:53:21.070Z,79.472
2023-01-21T12:54:20.894Z,79.573
2023-01-21T12:55:20.973Z,79.531
2023-01-21T12:56:21.034Z,79.098
2023-01-21T12:57:20.795Z,79.723
2023-01-21T12:59:21.374Z,79.431
2023-01-21T13:00:21.551Z,79.868
2023-01-21T13:01:20.663Z,79.767
2023-01-21T13:02:20.757Z,80.172
2023-01-21T13:03:20.603Z,79.950
2023-01-21T13:04:21.236Z,80.280
2023-01-21T13:05:21.374Z,80.351
2023-01-21T13:08:25.603Z,80.570
2023-01-21T13:09:25.419Z,80.400
2023-01-21T13:10:26.246Z,80.437
2023-01-21T13:11:26.025Z,80.318
2023-01-21T13:12:25.796Z,80.122
2023-01-21T13:13:25.640Z,80.103
2023-01-21T13:14:26.425Z,80.452
2023-01-21T13:15:26.231Z,80.389
2023-01-21T13:16:26.092Z,79.897
2023-01-21T13:17:25.942Z,80.137
2023-01-21T13:18:25.801Z,80.477
2023-01-21T13:19:25.507Z,80.618
2023-01-21T13:20:26.267Z,80.906
2023-01-21T13:21:28.431Z,80.748
2023-01-21T13:22:26.308Z,80.988
2023-01-21T13:23:26.335Z,81.261
2023-01-21T13:24:26.062Z,81.367
2023-01-21T13:25:25.863Z,81.387
2023-01-21T13:26:25.523Z,81.615
2023-01-21T13:27:26.299Z,81.345
2023-01-21T13:28:25.983Z,81.333